Pagrindinis puslapis
METAR-TAF:

METAR-TAF

Oro uostai :

Mariboras, Slovėnija

platuma: 46-29N, ilguma: 015-41E, Aukštis: 264 m

Dabartinis oras

Ataskaita buvo paskelbta 27 minutes, ne 21:00 UTC
Vėjas 4 kt iš Šiaurės
Temperatūra 7°C
Drėgmė 61%
Slėgis 1022 hPa
Matomumas 10 km arba daugiau

METAR: LJMB 092100Z AUTO 35004KT 9999 NCD 07/00 Q1022

Laikas: 23:27 (21:27 UTC)

Prognozė

Ataskaita buvo paskelbta 4 valandos ir 27 minutes, ne 17:00 UTC
Prognozė galioja nuo 09 metu 18 UTC su 10 metu 18 UTC
Vėjas 2 kt nuo kintamojo kryptimis
Matomumas 10 km arba daugiau
nėra debesų žemiau 1500 m ir nėra kamuolinių lietaus debesų

TAF: LJMB 091700Z 0918/1018 VRB02KT CAVOK

Orai ataskaitas ir orų prognozės (METAR, TAF).

turimą stotys yra geltonos ir raudonos taškus žemėlapyje.

Perkelti pele per norėdami pamatyti stoties vardą.

Tada spustelėkite, norėdami matyti oro stebėjimo ir prognozės.

Norėdami pakeisti žemėlapį: spustelėkite ant žalios mygtukų su juodo kryžiaus žemyn,; žalią mygtuką su brūkšneliu, jei norite nutolinti; arba žalių rodyklių gretimoms žemėlapius.


METAR-TAF: